createdAt,value
2023-02-06T00:00:51.391Z,72.28
2023-02-06T00:03:19.970Z,71.43
2023-02-06T00:05:57.261Z,71.55
2023-02-06T00:08:24.408Z,72.43
2023-02-06T00:10:50.926Z,71.59
2023-02-06T00:13:17.841Z,71.92
2023-02-06T00:15:44.822Z,72.18
2023-02-06T00:18:11.591Z,72.02
2023-02-06T00:20:38.764Z,70.55
2023-02-06T00:23:05.426Z,71.45
2023-02-06T00:25:32.080Z,73.22
2023-02-06T00:27:58.811Z,72.64
2023-02-06T00:30:25.343Z,71.29
2023-02-06T00:32:52.096Z,71.42
2023-02-06T00:35:18.757Z,70.81
2023-02-06T00:37:45.882Z,71.78
2023-02-06T00:40:12.750Z,71.62
2023-02-06T00:42:39.391Z,71.01
2023-02-06T00:45:06.898Z,72.11
2023-02-06T00:47:35.454Z,70.46
2023-02-06T00:50:03.700Z,72.03
2023-02-06T00:52:30.474Z,71.94
2023-02-06T00:54:57.038Z,70.46
2023-02-06T00:57:23.714Z,70.07
2023-02-06T00:59:50.260Z,70.91
2023-02-06T01:02:16.923Z,70.55
2023-02-06T01:04:43.524Z,71.07
2023-02-06T01:07:10.467Z,70.55
2023-02-06T01:09:37.139Z,69.71
2023-02-06T01:12:03.836Z,69.73
2023-02-06T01:14:30.571Z,70.00
2023-02-06T01:16:57.191Z,70.83
2023-02-06T01:19:26.713Z,69.74
2023-02-06T01:21:53.370Z,69.93
2023-02-06T01:24:19.858Z,70.63
2023-02-06T01:26:46.471Z,70.42
2023-02-06T01:29:13.072Z,69.33
2023-02-06T01:31:40.728Z,68.88
2023-02-06T01:34:08.028Z,68.82
2023-02-06T01:36:35.727Z,69.01
2023-02-06T01:39:02.303Z,69.36
2023-02-06T01:41:29.215Z,70.17
2023-02-06T01:44:13.018Z,69.89
2023-02-06T01:46:41.162Z,69.83
2023-02-06T01:49:12.180Z,70.80
2023-02-06T01:51:39.720Z,71.16
2023-02-06T01:54:08.900Z,71.08
2023-02-06T01:56:47.036Z,71.04
2023-02-06T01:59:14.188Z,70.35
2023-02-06T02:01:41.776Z,70.27
2023-02-06T02:04:16.247Z,70.77
2023-02-06T02:06:43.126Z,70.08
2023-02-06T02:09:09.736Z,70.64
2023-02-06T02:11:41.678Z,71.28
2023-02-06T02:14:12.421Z,70.93
2023-02-06T02:17:01.028Z,71.25
2023-02-06T02:19:33.689Z,71.82
2023-02-06T02:22:25.105Z,71.68
2023-02-06T02:25:17.988Z,71.55
2023-02-06T02:27:50.371Z,70.75
2023-02-06T02:31:05.181Z,71.09
2023-02-06T02:38:30.559Z,70.07
2023-02-06T02:41:13.174Z,71.17
2023-02-06T02:44:15.790Z,70.87
2023-02-06T02:46:51.950Z,71.22
2023-02-06T02:49:23.694Z,69.86
2023-02-06T02:51:51.571Z,68.35
2023-02-06T02:54:18.546Z,69.30
2023-02-06T02:56:45.393Z,69.99
2023-02-06T02:59:28.778Z,70.45
2023-02-06T03:02:04.575Z,70.58
2023-02-06T03:04:37.625Z,69.95
2023-02-06T03:07:32.463Z,69.61
2023-02-06T03:10:13.382Z,70.04
2023-02-06T03:12:45.029Z,70.90
2023-02-06T03:15:31.032Z,69.80
2023-02-06T03:18:12.801Z,70.52
2023-02-06T03:20:43.510Z,70.76
2023-02-06T03:23:14.585Z,71.01
2023-02-06T03:25:45.102Z,70.94
2023-02-06T03:28:20.465Z,71.43
2023-02-06T03:30:48.938Z,70.72
2023-02-06T03:33:19.027Z,69.82
2023-02-06T03:35:46.365Z,69.82
2023-02-06T03:38:13.712Z,71.64
2023-02-06T03:40:44.558Z,69.94
2023-02-06T03:43:18.442Z,69.40
2023-02-06T03:45:52.433Z,68.82
2023-02-06T03:48:23.808Z,69.42
2023-02-06T03:50:54.206Z,68.99
2023-02-06T03:53:24.573Z,70.20
2023-02-06T03:55:57.796Z,70.68
2023-02-06T03:58:24.855Z,71.48
2023-02-06T04:00:52.353Z,71.49
2023-02-06T04:03:21.394Z,70.84
2023-02-06T04:05:48.351Z,70.98
2023-02-06T04:08:15.307Z,70.31
2023-02-06T04:10:41.902Z,70.61
2023-02-06T04:13:08.440Z,70.41
2023-02-06T04:15:35.317Z,69.61
2023-02-06T04:18:02.827Z,70.63
2023-02-06T04:20:30.238Z,70.84
2023-02-06T04:22:57.878Z,70.85
2023-02-06T04:25:24.951Z,69.99
2023-02-06T04:27:51.705Z,70.08
2023-02-06T04:30:18.683Z,70.33
2023-02-06T04:32:45.401Z,70.34
2023-02-06T04:35:11.988Z,69.65
2023-02-06T04:37:38.737Z,68.78
2023-02-06T04:40:05.797Z,69.40
2023-02-06T04:42:32.488Z,69.43
2023-02-06T04:44:59.021Z,68.85
2023-02-06T04:47:25.678Z,69.84
2023-02-06T04:49:52.270Z,70.20
2023-02-06T04:52:18.837Z,70.74
2023-02-06T04:54:45.338Z,70.25
2023-02-06T04:57:11.910Z,69.30
2023-02-06T04:59:38.421Z,69.20
2023-02-06T05:02:05.122Z,69.61
2023-02-06T05:04:31.673Z,69.99
2023-02-06T05:06:58.414Z,69.93
2023-02-06T05:09:24.902Z,70.72
2023-02-06T05:11:51.503Z,72.49
2023-02-06T05:14:18.054Z,72.30
2023-02-06T05:16:45.106Z,73.12
2023-02-06T05:19:11.613Z,73.07
2023-02-06T05:21:38.274Z,72.41
2023-02-06T05:24:05.192Z,72.66
2023-02-06T05:26:31.806Z,73.08
2023-02-06T05:28:58.446Z,71.87
2023-02-06T05:31:25.101Z,72.49
2023-02-06T05:33:52.454Z,72.50
2023-02-06T05:36:20.161Z,73.04
2023-02-06T05:38:47.421Z,73.44
2023-02-06T05:41:14.598Z,72.43
2023-02-06T05:43:41.370Z,72.41
2023-02-06T05:46:07.996Z,72.73
2023-02-06T05:48:35.140Z,72.76
2023-02-06T05:51:02.097Z,72.82
2023-02-06T05:53:28.672Z,71.75
2023-02-06T05:55:56.095Z,70.54
2023-02-06T05:58:22.782Z,71.48
2023-02-06T06:00:49.329Z,71.74
2023-02-06T06:03:15.954Z,72.36
2023-02-06T06:05:42.704Z,73.11
2023-02-06T06:08:09.234Z,72.78
2023-02-06T06:10:35.861Z,73.36
2023-02-06T06:13:02.461Z,73.48
2023-02-06T06:15:29.102Z,72.46
2023-02-06T06:17:55.908Z,73.41
2023-02-06T06:20:22.983Z,73.39
2023-02-06T06:22:49.594Z,73.22
2023-02-06T06:25:16.729Z,73.63
2023-02-06T06:27:43.560Z,73.42
2023-02-06T06:30:10.955Z,72.29
2023-02-06T06:32:37.470Z,72.90
2023-02-06T06:35:04.909Z,73.11
2023-02-06T06:37:31.481Z,73.97
2023-02-06T06:39:58.063Z,73.22
2023-02-06T06:42:24.623Z,74.52
2023-02-06T06:44:51.134Z,74.68
2023-02-06T06:47:17.605Z,75.05
2023-02-06T06:49:44.118Z,75.93
2023-02-06T06:52:23.035Z,75.77
2023-02-06T06:54:52.508Z,75.01
2023-02-06T06:57:19.833Z,74.46
2023-02-06T06:59:46.478Z,74.10
2023-02-06T07:02:13.003Z,74.50
2023-02-06T07:04:39.765Z,73.96
2023-02-06T07:07:06.377Z,74.33
2023-02-06T07:09:32.926Z,74.18
2023-02-06T07:11:59.501Z,74.71
2023-02-06T07:14:26.128Z,74.83
2023-02-06T07:16:52.713Z,74.79
2023-02-06T07:19:19.432Z,75.56
2023-02-06T07:21:46.051Z,75.44
2023-02-06T07:24:12.571Z,75.40
2023-02-06T07:26:39.126Z,76.00
2023-02-06T07:29:06.142Z,75.43
2023-02-06T07:31:32.728Z,76.03
2023-02-06T07:34:00.046Z,75.09
2023-02-06T07:36:26.533Z,75.73
2023-02-06T07:38:53.174Z,75.52
2023-02-06T07:41:19.671Z,75.48
2023-02-06T07:43:46.307Z,75.56
2023-02-06T07:46:13.031Z,74.97
2023-02-06T07:48:39.673Z,73.83
2023-02-06T07:51:08.572Z,75.53
2023-02-06T07:53:35.777Z,74.67
2023-02-06T07:56:02.746Z,74.86
2023-02-06T07:58:29.299Z,74.93
2023-02-06T08:00:56.101Z,74.87
2023-02-06T08:03:22.697Z,73.42
2023-02-06T08:05:49.218Z,74.03
2023-02-06T08:08:15.739Z,73.26
2023-02-06T08:10:42.267Z,74.08
2023-02-06T08:13:08.816Z,73.06
2023-02-06T08:15:35.710Z,73.40
2023-02-06T08:18:02.394Z,73.42
2023-02-06T08:20:28.849Z,73.34
2023-02-06T08:22:55.494Z,72.22
2023-02-06T08:25:22.098Z,73.43
2023-02-06T08:27:53.559Z,73.16
2023-02-06T08:30:21.032Z,73.36
2023-02-06T08:32:47.661Z,73.83
2023-02-06T08:35:14.390Z,74.01
2023-02-06T08:37:40.867Z,72.57
2023-02-06T08:40:08.775Z,72.74
2023-02-06T08:42:35.907Z,73.40
2023-02-06T08:45:02.626Z,72.54
2023-02-06T08:47:29.229Z,74.58
2023-02-06T08:49:55.922Z,72.97
2023-02-06T08:52:23.209Z,73.19
2023-02-06T08:54:51.631Z,75.04
2023-02-06T08:57:18.299Z,72.24
2023-02-06T08:59:45.062Z,74.30
2023-02-06T09:02:11.725Z,74.97
2023-02-06T09:04:39.178Z,74.87
2023-02-06T09:07:06.007Z,75.39
2023-02-06T09:09:32.638Z,75.16
2023-02-06T09:12:03.573Z,75.16
2023-02-06T09:14:30.889Z,75.81
2023-02-06T09:16:58.152Z,76.33
2023-02-06T09:19:25.992Z,76.17
2023-02-06T09:21:53.564Z,76.64
2023-02-06T09:24:20.494Z,75.28
2023-02-06T09:26:59.337Z,77.22
2023-02-06T09:29:31.948Z,76.81
2023-02-06T09:31:59.641Z,76.88
2023-02-06T09:34:28.096Z,77.84
2023-02-06T09:36:56.625Z,77.65
2023-02-06T09:39:24.524Z,77.60
2023-02-06T09:41:55.192Z,77.49
2023-02-06T09:44:31.757Z,78.31
2023-02-06T09:47:17.043Z,78.18
2023-02-06T09:49:48.937Z,78.04
2023-02-06T09:52:35.251Z,77.32
2023-02-06T09:55:23.277Z,79.21
2023-02-06T09:58:03.974Z,77.88
2023-02-06T10:00:43.622Z,77.82
2023-02-06T10:03:32.026Z,79.95
2023-02-06T10:06:19.517Z,80.37
2023-02-06T10:08:58.647Z,80.63
2023-02-06T10:11:51.161Z,80.77
2023-02-06T10:14:56.833Z,81.37
2023-02-06T10:17:27.126Z,81.29
2023-02-06T10:20:12.575Z,80.96
2023-02-06T10:23:02.182Z,80.75
2023-02-06T10:25:37.521Z,81.48
2023-02-06T10:28:24.115Z,81.06
2023-02-06T10:31:19.882Z,79.19
2023-02-06T10:33:58.678Z,80.47
2023-02-06T10:37:10.302Z,79.95
2023-02-06T10:40:01.727Z,79.86
2023-02-06T10:42:28.399Z,80.17
2023-02-06T10:45:21.015Z,79.04
2023-02-06T10:48:21.783Z,81.63
2023-02-06T10:50:54.065Z,83.80
2023-02-06T10:53:46.781Z,83.94
2023-02-06T10:56:16.940Z,84.59
2023-02-06T10:58:53.241Z,83.55
2023-02-06T11:01:26.456Z,84.15
2023-02-06T11:04:03.482Z,84.13
2023-02-06T11:06:31.591Z,82.97
2023-02-06T11:08:58.667Z,83.79
2023-02-06T11:11:32.186Z,83.94
2023-02-06T11:14:05.088Z,83.57
2023-02-06T11:16:35.321Z,83.47
2023-02-06T11:19:16.244Z,83.65
2023-02-06T11:21:52.840Z,83.54
2023-02-06T11:24:23.606Z,83.50
2023-02-06T11:26:55.384Z,84.14
2023-02-06T11:29:26.407Z,82.94
2023-02-06T11:31:59.100Z,83.28
2023-02-06T11:34:32.762Z,83.70
2023-02-06T11:37:01.122Z,84.22
2023-02-06T11:39:39.287Z,84.24
2023-02-06T11:42:13.443Z,82.71
2023-02-06T11:44:44.044Z,83.19
2023-02-06T11:47:33.301Z,82.00
2023-02-06T11:50:22.402Z,82.57
2023-02-06T11:52:49.103Z,82.32
2023-02-06T11:55:30.661Z,82.55
2023-02-06T11:58:01.603Z,82.27
2023-02-06T12:00:28.818Z,83.09
2023-02-06T12:02:55.691Z,82.32
2023-02-06T12:05:26.530Z,82.67
2023-02-06T12:08:02.223Z,82.79
2023-02-06T12:10:33.026Z,82.37
2023-02-06T12:13:12.978Z,83.26
2023-02-06T12:15:47.286Z,83.78
2023-02-06T12:18:20.504Z,83.09
2023-02-06T12:20:52.861Z,82.51
2023-02-06T12:23:25.702Z,82.76
2023-02-06T12:25:57.553Z,81.85
2023-02-06T12:28:30.401Z,82.31
2023-02-06T12:31:04.810Z,83.13
2023-02-06T12:33:42.601Z,82.71
2023-02-06T12:36:34.026Z,81.91
2023-02-06T12:39:22.410Z,82.17
2023-02-06T12:42:27.729Z,82.44
2023-02-06T12:45:20.024Z,82.83
2023-02-06T12:47:53.323Z,83.85
2023-02-06T12:50:33.962Z,83.59
2023-02-06T12:53:12.429Z,83.68
2023-02-06T12:55:49.957Z,83.52
2023-02-06T12:58:50.514Z,83.34
2023-02-06T13:01:40.165Z,84.77
2023-02-06T13:04:23.483Z,84.26
2023-02-06T13:06:56.490Z,84.86
2023-02-06T13:09:30.503Z,84.83
2023-02-06T13:12:19.452Z,85.29
2023-02-06T13:14:52.696Z,85.00
2023-02-06T13:17:31.518Z,84.67
2023-02-06T13:20:15.212Z,84.65
2023-02-06T13:22:50.986Z,85.04
2023-02-06T13:25:29.558Z,84.68
2023-02-06T13:28:01.167Z,83.83
2023-02-06T13:30:31.051Z,85.02
2023-02-06T13:33:08.584Z,86.11
2023-02-06T13:35:35.571Z,86.73
2023-02-06T13:38:24.077Z,87.17
2023-02-06T13:41:12.284Z,87.21
2023-02-06T13:43:41.089Z,87.73
2023-02-06T13:46:12.869Z,88.02
2023-02-06T13:48:54.892Z,87.37
2023-02-06T13:51:46.768Z,86.43
2023-02-06T13:54:50.528Z,86.07
2023-02-06T13:57:50.463Z,85.30
2023-02-06T14:00:23.405Z,84.69
2023-02-06T14:02:54.205Z,84.61
2023-02-06T14:05:31.217Z,85.00
2023-02-06T14:08:12.478Z,84.53
2023-02-06T14:11:19.218Z,85.09
2023-02-06T14:14:17.173Z,85.47
2023-02-06T14:16:53.234Z,85.41
2023-02-06T14:20:07.720Z,85.26
2023-02-06T14:22:50.995Z,84.48
2023-02-06T14:25:47.013Z,83.61
2023-02-06T14:28:39.651Z,83.26
2023-02-06T14:31:14.939Z,83.03
2023-02-06T14:34:07.439Z,83.27
2023-02-06T14:36:37.030Z,82.58
2023-02-06T14:39:41.238Z,83.78
2023-02-06T14:42:22.545Z,82.94
2023-02-06T14:44:56.927Z,83.98
2023-02-06T14:47:27.920Z,84.19
2023-02-06T14:49:56.490Z,83.26
2023-02-06T14:52:26.212Z,83.92
2023-02-06T14:54:53.171Z,83.58
2023-02-06T14:57:27.666Z,84.11
2023-02-06T15:00:01.345Z,84.35
2023-02-06T15:02:34.091Z,84.69
2023-02-06T15:05:02.193Z,83.88
2023-02-06T15:07:37.449Z,84.14
2023-02-06T15:10:07.552Z,83.27
2023-02-06T15:12:34.986Z,83.13
2023-02-06T15:15:16.363Z,82.62
2023-02-06T15:17:43.781Z,82.31
2023-02-06T15:20:34.565Z,81.98
2023-02-06T15:23:18.153Z,81.69
2023-02-06T15:25:54.070Z,81.89
2023-02-06T15:28:25.534Z,82.25
2023-02-06T15:30:58.812Z,82.16
2023-02-06T15:33:28.919Z,81.92
2023-02-06T15:35:58.989Z,81.34
2023-02-06T15:38:27.752Z,81.11
2023-02-06T15:41:06.970Z,82.28
2023-02-06T15:43:35.826Z,82.33
2023-02-06T15:46:05.271Z,81.68
2023-02-06T15:48:43.619Z,81.60
2023-02-06T15:51:27.991Z,81.60
2023-02-06T15:54:16.482Z,81.07
2023-02-06T15:56:46.912Z,81.33
2023-02-06T15:59:20.788Z,81.11
2023-02-06T16:01:48.753Z,81.70
2023-02-06T16:04:32.259Z,81.52
2023-02-06T16:07:13.742Z,80.90
2023-02-06T16:09:52.612Z,80.88
2023-02-06T16:12:21.206Z,81.54
2023-02-06T16:15:01.680Z,80.33
2023-02-06T16:17:34.417Z,80.71
2023-02-06T16:20:07.499Z,80.02
2023-02-06T16:22:38.164Z,80.02
2023-02-06T16:25:21.467Z,79.40
2023-02-06T16:27:51.119Z,78.38
2023-02-06T16:30:30.894Z,78.73
2023-02-06T16:33:00.579Z,79.60
2023-02-06T16:35:27.107Z,80.31
2023-02-06T16:37:54.795Z,80.41
2023-02-06T16:40:21.487Z,79.97
2023-02-06T16:42:48.076Z,79.83
2023-02-06T16:45:18.987Z,81.41
2023-02-06T16:47:46.197Z,80.31
2023-02-06T16:50:13.586Z,79.91
2023-02-06T16:52:45.819Z,78.60
2023-02-06T16:55:23.481Z,80.37
2023-02-06T16:57:53.908Z,80.32
2023-02-06T17:00:24.603Z,80.29
2023-02-06T17:02:52.249Z,78.43
2023-02-06T17:05:21.688Z,78.35
2023-02-06T17:07:51.186Z,77.34
2023-02-06T17:10:21.180Z,77.31
2023-02-06T17:12:48.648Z,77.21
2023-02-06T17:15:17.539Z,77.70
2023-02-06T17:17:44.506Z,78.02
2023-02-06T17:20:29.152Z,78.84
2023-02-06T17:22:55.752Z,78.09
2023-02-06T17:25:22.287Z,78.13
2023-02-06T17:27:48.888Z,78.16
2023-02-06T17:30:21.430Z,77.66
2023-02-06T17:32:48.214Z,77.14
2023-02-06T17:35:15.290Z,74.67
2023-02-06T17:37:42.155Z,74.82
2023-02-06T17:40:11.550Z,74.16
2023-02-06T17:42:38.282Z,74.64
2023-02-06T17:45:05.199Z,75.64
2023-02-06T17:47:31.745Z,75.95
2023-02-06T17:49:58.503Z,74.60
2023-02-06T17:52:25.124Z,74.46
2023-02-06T17:54:52.456Z,75.43
2023-02-06T17:57:19.188Z,75.59
2023-02-06T17:59:45.769Z,74.40
2023-02-06T18:02:14.212Z,74.22
2023-02-06T18:04:41.217Z,73.95
2023-02-06T18:07:08.097Z,73.99
2023-02-06T18:09:34.598Z,74.02
2023-02-06T18:12:01.201Z,73.61
2023-02-06T18:14:27.838Z,73.90
2023-02-06T18:16:54.432Z,73.22
2023-02-06T18:19:24.672Z,74.34
2023-02-06T18:21:51.542Z,75.01
2023-02-06T18:24:18.154Z,73.87
2023-02-06T18:26:44.783Z,72.61
2023-02-06T18:29:11.393Z,74.54
2023-02-06T18:31:38.551Z,75.97
2023-02-06T18:34:07.970Z,73.81
2023-02-06T18:36:36.194Z,74.26
2023-02-06T18:39:04.077Z,74.10
2023-02-06T18:41:49.088Z,73.87
2023-02-06T18:44:16.039Z,74.69
2023-02-06T18:46:42.777Z,74.46
2023-02-06T18:49:09.393Z,74.61
2023-02-06T18:51:35.912Z,75.21
2023-02-06T18:54:03.292Z,74.82
2023-02-06T18:56:30.593Z,74.88
2023-02-06T18:58:57.168Z,74.02
2023-02-06T19:01:24.806Z,73.65
2023-02-06T19:03:53.085Z,73.36
2023-02-06T19:06:28.801Z,72.63
2023-02-06T19:08:56.916Z,72.06
2023-02-06T19:11:24.050Z,72.01
2023-02-06T19:13:50.766Z,72.84
2023-02-06T19:16:19.608Z,73.02
2023-02-06T19:18:48.129Z,72.27
2023-02-06T19:21:17.956Z,72.64
2023-02-06T19:23:46.513Z,73.76
2023-02-06T19:26:15.650Z,73.45
2023-02-06T19:28:43.193Z,73.06
2023-02-06T19:31:11.785Z,74.09
2023-02-06T19:33:40.709Z,74.62
2023-02-06T19:36:12.066Z,74.39
2023-02-06T19:38:39.510Z,73.42
2023-02-06T19:41:14.890Z,73.71
2023-02-06T19:43:42.397Z,72.99
2023-02-06T19:46:12.519Z,72.15
2023-02-06T19:48:42.020Z,71.53
2023-02-06T19:51:12.344Z,71.84
2023-02-06T19:53:45.195Z,71.24
2023-02-06T19:56:14.134Z,70.15
2023-02-06T19:58:41.705Z,71.10
2023-02-06T20:01:13.366Z,71.68
2023-02-06T20:03:40.415Z,71.35
2023-02-06T20:06:11.380Z,71.50
2023-02-06T20:08:39.912Z,71.22
2023-02-06T20:11:13.339Z,70.14
2023-02-06T20:13:41.045Z,69.85
2023-02-06T20:16:17.936Z,70.38
2023-02-06T20:18:45.322Z,70.06
2023-02-06T20:21:31.282Z,70.82
2023-02-06T20:23:59.618Z,71.15
2023-02-06T20:26:29.300Z,70.95
2023-02-06T20:28:56.331Z,71.68
2023-02-06T20:31:23.278Z,71.32
2023-02-06T20:33:50.165Z,72.59
2023-02-06T20:36:21.827Z,72.81
2023-02-06T20:38:50.637Z,71.05
2023-02-06T20:41:18.480Z,70.61
2023-02-06T20:43:47.827Z,71.12
2023-02-06T20:46:18.024Z,71.29
2023-02-06T20:48:46.561Z,72.20
2023-02-06T20:51:14.511Z,72.47
2023-02-06T20:53:41.108Z,70.85
2023-02-06T20:56:12.274Z,71.92
2023-02-06T20:58:39.157Z,71.58
2023-02-06T21:01:16.615Z,71.42
2023-02-06T21:03:45.065Z,71.70
2023-02-06T21:06:12.243Z,71.10
2023-02-06T21:08:38.973Z,70.52
2023-02-06T21:11:08.576Z,72.18
2023-02-06T21:13:35.336Z,70.09
2023-02-06T21:16:02.537Z,69.50
2023-02-06T21:18:31.328Z,70.86
2023-02-06T21:21:09.361Z,70.89
2023-02-06T21:23:37.469Z,70.70
2023-02-06T21:26:05.107Z,70.44
2023-02-06T21:28:33.528Z,68.90
2023-02-06T21:31:06.377Z,69.36
2023-02-06T21:33:33.633Z,70.34
2023-02-06T21:36:02.034Z,69.80
2023-02-06T21:38:29.055Z,69.94
2023-02-06T21:40:55.564Z,69.73
2023-02-06T21:43:22.147Z,69.94
2023-02-06T21:45:48.713Z,70.72
2023-02-06T21:48:15.418Z,71.16
2023-02-06T21:50:42.004Z,70.42
2023-02-06T21:53:09.352Z,69.67
2023-02-06T21:55:42.194Z,69.98
2023-02-06T21:58:09.373Z,68.97
2023-02-06T22:00:35.947Z,69.47
2023-02-06T22:03:03.105Z,70.67
2023-02-06T22:05:29.886Z,70.24
2023-02-06T22:07:58.217Z,69.92
2023-02-06T22:10:24.985Z,69.57
2023-02-06T22:12:51.645Z,69.05
2023-02-06T22:15:18.522Z,67.99
2023-02-06T22:17:45.127Z,68.18
2023-02-06T22:20:11.627Z,68.93
2023-02-06T22:22:38.632Z,68.87
2023-02-06T22:25:05.652Z,69.80
2023-02-06T22:27:32.830Z,70.69
2023-02-06T22:29:59.354Z,69.19
2023-02-06T22:32:26.019Z,69.13
2023-02-06T22:34:53.842Z,69.98
2023-02-06T22:37:20.796Z,69.13
2023-02-06T22:39:47.396Z,69.61
2023-02-06T22:42:13.949Z,68.94
2023-02-06T22:44:40.448Z,68.36
2023-02-06T22:47:07.133Z,69.71
2023-02-06T22:49:33.751Z,70.64
2023-02-06T22:52:00.275Z,70.17
2023-02-06T22:54:26.940Z,70.34
2023-02-06T22:56:53.599Z,69.71
2023-02-06T22:59:24.158Z,69.56
2023-02-06T23:01:58.628Z,70.08
2023-02-06T23:04:28.412Z,70.60
2023-02-06T23:06:55.778Z,70.66
2023-02-06T23:09:31.695Z,70.36
2023-02-06T23:11:58.736Z,69.46
2023-02-06T23:14:26.226Z,69.19
2023-02-06T23:16:52.918Z,69.80
2023-02-06T23:19:20.379Z,69.74
2023-02-06T23:21:48.934Z,69.92
2023-02-06T23:24:15.813Z,69.98
2023-02-06T23:26:45.609Z,70.15
2023-02-06T23:29:17.657Z,70.20
2023-02-06T23:31:45.566Z,71.08
2023-02-06T23:34:13.507Z,69.54
2023-02-06T23:36:40.154Z,69.95
2023-02-06T23:39:06.798Z,70.88
2023-02-06T23:41:33.910Z,70.04
2023-02-06T23:44:04.296Z,69.36
2023-02-06T23:46:32.918Z,67.84
2023-02-06T23:48:59.411Z,69.15
2023-02-06T23:51:26.659Z,70.39
2023-02-06T23:53:53.268Z,69.72
2023-02-06T23:56:23.058Z,68.76
2023-02-06T23:58:50.636Z,69.37
